createdAt,value
2023-03-26T00:01:47.461Z,11.45
2023-03-26T00:04:14.919Z,11.54
2023-03-26T00:06:42.215Z,11.58
2023-03-26T00:09:13.752Z,11.63
2023-03-26T00:11:41.622Z,11.74
2023-03-26T00:14:14.267Z,11.71
2023-03-26T00:16:44.087Z,11.74
2023-03-26T00:19:12.855Z,11.78
2023-03-26T00:21:40.320Z,11.85
2023-03-26T00:24:16.442Z,11.89
2023-03-26T00:26:45.090Z,11.84
2023-03-26T00:29:14.085Z,11.85
2023-03-26T00:31:41.485Z,11.85
2023-03-26T00:34:10.907Z,11.87
2023-03-26T00:36:38.570Z,11.84
2023-03-26T00:39:06.621Z,11.89
2023-03-26T00:41:37.485Z,11.82
2023-03-26T00:44:05.307Z,11.85
2023-03-26T00:46:33.100Z,11.74
2023-03-26T00:49:02.205Z,11.64
2023-03-26T00:51:30.302Z,11.62
2023-03-26T00:53:58.429Z,11.48
2023-03-26T00:56:26.449Z,11.46
2023-03-26T00:58:53.992Z,11.38
2023-03-26T01:01:28.629Z,11.32
2023-03-26T01:06:33.135Z,11.13
2023-03-26T01:09:13.001Z,11.00
2023-03-26T01:11:40.446Z,10.82
2023-03-26T01:14:16.500Z,10.72
2023-03-26T01:16:46.680Z,10.67
2023-03-26T01:19:29.960Z,10.57
2023-03-26T01:21:59.447Z,10.32
2023-03-26T01:24:27.069Z,10.33
2023-03-26T01:27:00.900Z,10.14
2023-03-26T01:29:48.660Z,10.00
2023-03-26T01:32:40.390Z,10.00
2023-03-26T01:35:39.244Z,9.90
2023-03-26T01:38:19.014Z,9.80
2023-03-26T01:41:21.263Z,9.78
2023-03-26T01:44:03.462Z,9.77
2023-03-26T01:46:36.630Z,9.80
2023-03-26T01:49:13.524Z,9.82
2023-03-26T01:51:42.966Z,9.77
2023-03-26T01:54:19.186Z,9.88
2023-03-26T01:57:21.267Z,9.77
2023-03-26T02:00:25.181Z,9.78
2023-03-26T02:02:55.882Z,9.76
2023-03-26T02:05:32.287Z,9.74
2023-03-26T02:08:21.310Z,9.72
2023-03-26T02:10:56.130Z,9.70
2023-03-26T02:13:24.620Z,9.76
2023-03-26T02:16:00.492Z,9.70
2023-03-26T02:18:36.736Z,9.76
2023-03-26T02:21:12.501Z,9.78
2023-03-26T02:23:47.257Z,9.73
2023-03-26T02:26:18.217Z,9.72
2023-03-26T02:29:13.657Z,9.65
2023-03-26T02:31:43.613Z,9.62
2023-03-26T02:34:11.756Z,9.62
2023-03-26T02:36:45.868Z,9.61
2023-03-26T02:39:14.817Z,9.64
2023-03-26T02:41:48.089Z,9.52
2023-03-26T02:44:15.736Z,9.56
2023-03-26T02:46:58.247Z,9.54
2023-03-26T02:49:48.676Z,9.44
2023-03-26T02:52:39.476Z,9.44
2023-03-26T02:55:08.096Z,9.45
2023-03-26T02:57:36.910Z,9.50
2023-03-26T03:00:22.310Z,9.48
2023-03-26T03:03:09.830Z,9.45
2023-03-26T03:05:57.693Z,9.53
2023-03-26T03:08:31.098Z,9.51
2023-03-26T03:11:27.216Z,9.52
2023-03-26T03:13:55.523Z,9.54
2023-03-26T03:16:26.045Z,9.48
2023-03-26T03:18:58.063Z,9.44
2023-03-26T03:21:37.189Z,9.35
2023-03-26T03:24:05.308Z,9.23
2023-03-26T03:26:36.651Z,9.13
2023-03-26T03:29:30.764Z,9.00
2023-03-26T03:32:06.225Z,8.91
2023-03-26T03:34:45.383Z,8.87
2023-03-26T03:37:12.970Z,8.85
2023-03-26T03:39:49.345Z,8.77
2023-03-26T03:42:20.236Z,8.73
2023-03-26T03:44:49.702Z,8.67
2023-03-26T03:47:39.922Z,8.62
2023-03-26T03:50:08.649Z,8.62
2023-03-26T03:52:37.398Z,8.50
2023-03-26T03:55:05.812Z,8.47
2023-03-26T03:57:43.752Z,8.39
2023-03-26T04:00:17.645Z,8.34
2023-03-26T04:03:06.736Z,8.26
2023-03-26T04:05:35.262Z,8.18
2023-03-26T04:08:02.679Z,8.10
2023-03-26T04:10:59.760Z,7.91
2023-03-26T04:13:47.534Z,7.83
2023-03-26T04:16:29.744Z,7.69
2023-03-26T04:18:58.760Z,7.72
2023-03-26T04:21:30.946Z,7.66
2023-03-26T04:24:02.301Z,7.62
2023-03-26T04:26:53.742Z,7.54
2023-03-26T04:29:30.830Z,7.52
2023-03-26T04:31:59.541Z,7.47
2023-03-26T04:34:30.171Z,7.48
2023-03-26T04:37:07.644Z,7.48
2023-03-26T04:39:41.993Z,7.52
2023-03-26T04:42:33.676Z,7.51
2023-03-26T04:45:11.681Z,7.58
2023-03-26T04:47:41.986Z,7.67
2023-03-26T04:50:10.746Z,7.75
2023-03-26T04:52:40.566Z,7.82
2023-03-26T04:55:37.298Z,7.95
2023-03-26T04:58:14.446Z,8.20
2023-03-26T05:01:10.429Z,8.52
2023-03-26T05:03:42.051Z,8.74
2023-03-26T05:06:14.073Z,9.04
2023-03-26T05:08:42.456Z,9.33
2023-03-26T05:11:17.908Z,9.59
2023-03-26T05:13:45.792Z,9.78
2023-03-26T05:16:18.644Z,10.06
2023-03-26T05:18:56.765Z,10.45
2023-03-26T05:21:28.531Z,10.66
2023-03-26T05:23:56.141Z,11.04
2023-03-26T05:26:23.915Z,11.28
2023-03-26T05:28:52.759Z,11.72
2023-03-26T05:31:35.943Z,12.00
2023-03-26T05:34:04.346Z,12.31
2023-03-26T05:36:32.346Z,12.57
2023-03-26T05:39:27.266Z,12.68
2023-03-26T05:42:03.790Z,12.54
2023-03-26T05:44:50.193Z,12.31
2023-03-26T05:47:23.916Z,12.15
2023-03-26T05:49:51.912Z,12.15
2023-03-26T05:52:19.561Z,12.30
2023-03-26T05:55:10.944Z,12.68
2023-03-26T05:58:00.192Z,13.25
2023-03-26T06:00:49.284Z,13.81
2023-03-26T06:03:29.094Z,14.23
2023-03-26T06:06:18.219Z,14.56
2023-03-26T06:09:01.158Z,14.74
2023-03-26T06:11:32.814Z,15.20
2023-03-26T06:14:02.567Z,15.71
2023-03-26T06:16:31.285Z,16.13
2023-03-26T06:19:17.909Z,16.42
2023-03-26T06:22:03.982Z,16.65
2023-03-26T06:24:44.368Z,16.86
2023-03-26T06:27:39.569Z,16.95
2023-03-26T06:30:45.135Z,17.25
2023-03-26T06:33:46.476Z,17.51
2023-03-26T06:36:14.880Z,17.83
2023-03-26T06:38:42.742Z,17.74
2023-03-26T06:41:10.569Z,17.88
2023-03-26T06:43:39.542Z,18.04
2023-03-26T06:46:25.970Z,18.35
2023-03-26T06:49:17.480Z,18.46
2023-03-26T06:52:13.606Z,18.41
2023-03-26T06:55:02.123Z,18.44
2023-03-26T06:58:06.949Z,18.97
2023-03-26T07:00:37.490Z,18.84
2023-03-26T07:03:23.630Z,18.92
2023-03-26T07:06:20.661Z,18.52
2023-03-26T07:09:07.490Z,18.21
2023-03-26T07:11:53.771Z,18.32
2023-03-26T07:15:00.357Z,18.17
2023-03-26T07:17:37.480Z,18.46
2023-03-26T07:20:13.657Z,18.52
2023-03-26T07:22:42.599Z,18.33
2023-03-26T07:25:18.209Z,18.03
2023-03-26T07:28:18.787Z,17.55
2023-03-26T07:31:25.588Z,17.21
2023-03-26T07:34:39.578Z,16.71
2023-03-26T07:37:36.595Z,16.41
2023-03-26T07:40:50.050Z,15.76
2023-03-26T07:43:45.959Z,15.57
2023-03-26T07:46:38.007Z,15.47
2023-03-26T07:49:25.376Z,15.73
2023-03-26T07:52:12.283Z,16.40
2023-03-26T07:54:49.442Z,17.62
2023-03-26T07:57:44.689Z,18.95
2023-03-26T08:00:45.518Z,19.89
2023-03-26T08:03:17.440Z,20.46
2023-03-26T08:06:11.216Z,20.47
2023-03-26T08:09:00.561Z,20.31
2023-03-26T08:12:14.638Z,19.68
2023-03-26T08:15:29.908Z,19.37
2023-03-26T08:18:16.585Z,18.83
2023-03-26T08:20:49.856Z,18.86
2023-03-26T08:23:50.662Z,18.95
2023-03-26T08:26:34.660Z,18.99
2023-03-26T08:29:14.124Z,18.87
2023-03-26T08:31:45.160Z,18.48
2023-03-26T08:34:14.139Z,18.04
2023-03-26T08:36:41.853Z,17.60
2023-03-26T08:39:09.440Z,17.21
2023-03-26T08:42:03.314Z,16.91
2023-03-26T08:45:08.237Z,16.63
2023-03-26T08:47:50.028Z,16.50
2023-03-26T08:50:32.984Z,16.26
2023-03-26T08:53:00.154Z,15.94
2023-03-26T08:56:12.617Z,15.86
2023-03-26T08:59:08.984Z,15.69
2023-03-26T09:01:52.059Z,15.57
2023-03-26T09:04:52.583Z,15.55
2023-03-26T09:07:54.031Z,15.31
2023-03-26T09:10:40.636Z,15.26
2023-03-26T09:13:26.531Z,15.23
2023-03-26T09:16:42.444Z,15.17
2023-03-26T09:19:22.267Z,15.20
2023-03-26T09:22:01.816Z,15.19
2023-03-26T09:25:00.500Z,15.18
2023-03-26T09:27:46.326Z,14.96
2023-03-26T09:30:40.002Z,14.68
2023-03-26T09:33:32.527Z,14.66
2023-03-26T09:36:19.751Z,14.61
2023-03-26T09:39:13.175Z,14.87
2023-03-26T09:42:05.786Z,15.05
2023-03-26T09:45:01.602Z,15.35
2023-03-26T09:47:49.936Z,15.80
2023-03-26T09:50:30.220Z,16.19
2023-03-26T09:53:00.680Z,16.61
2023-03-26T09:59:05.386Z,18.05
2023-03-26T10:02:04.619Z,18.63
2023-03-26T10:04:38.202Z,18.89
2023-03-26T10:07:30.404Z,19.26
2023-03-26T10:10:26.961Z,19.42
2023-03-26T10:13:15.833Z,19.23
2023-03-26T10:16:05.335Z,19.19
2023-03-26T10:19:08.173Z,19.05
2023-03-26T10:21:56.946Z,19.14
2023-03-26T10:24:34.920Z,19.34
2023-03-26T10:27:11.594Z,19.69
2023-03-26T10:29:58.066Z,20.08
2023-03-26T10:32:52.492Z,20.63
2023-03-26T10:35:25.453Z,20.95
2023-03-26T10:38:19.523Z,21.27
2023-03-26T10:41:04.946Z,21.35
2023-03-26T10:44:05.283Z,21.32
2023-03-26T10:46:45.092Z,21.30
2023-03-26T10:49:31.186Z,21.17
2023-03-26T10:52:06.980Z,21.15
2023-03-26T10:54:47.258Z,21.08
2023-03-26T10:57:54.597Z,20.80
2023-03-26T11:00:27.334Z,20.80
2023-03-26T11:03:04.336Z,21.17
2023-03-26T11:06:04.535Z,21.58
2023-03-26T11:08:47.267Z,21.83
2023-03-26T11:11:38.889Z,21.76
2023-03-26T11:14:51.653Z,20.91
2023-03-26T11:17:56.457Z,20.13
2023-03-26T11:20:55.926Z,19.33
2023-03-26T11:23:43.503Z,19.05
2023-03-26T11:26:22.613Z,18.83
2023-03-26T11:29:31.751Z,18.83
2023-03-26T11:32:14.787Z,19.15
2023-03-26T11:35:06.844Z,19.54
2023-03-26T11:37:49.233Z,19.78
2023-03-26T11:40:33.027Z,19.77
2023-03-26T11:43:02.679Z,20.09
2023-03-26T11:45:38.211Z,20.33
2023-03-26T11:48:19.485Z,20.61
2023-03-26T11:50:49.685Z,20.54
2023-03-26T11:53:19.021Z,20.48
2023-03-26T11:56:09.543Z,20.32
2023-03-26T11:58:43.786Z,20.06
2023-03-26T12:01:17.709Z,19.55
2023-03-26T12:03:55.971Z,19.03
2023-03-26T12:06:27.769Z,19.15
2023-03-26T12:08:55.584Z,19.43
2023-03-26T12:11:33.887Z,19.78
2023-03-26T12:14:04.670Z,19.96
2023-03-26T12:16:31.972Z,20.35
2023-03-26T12:19:07.682Z,20.72
2023-03-26T12:22:04.341Z,20.86
2023-03-26T12:24:33.893Z,20.80
2023-03-26T12:27:21.246Z,21.00
2023-03-26T12:30:07.314Z,21.28
2023-03-26T12:32:46.184Z,21.44
2023-03-26T12:35:25.169Z,21.64
2023-03-26T12:37:53.040Z,21.82
2023-03-26T12:40:36.026Z,21.77
2023-03-26T12:44:47.107Z,21.61
2023-03-26T12:47:54.422Z,21.15
2023-03-26T12:48:44.174Z,20.92
2023-03-26T12:51:20.439Z,20.62
2023-03-26T12:53:53.800Z,20.16
2023-03-26T12:56:44.429Z,19.96
2023-03-26T12:59:12.145Z,19.77
2023-03-26T13:01:42.180Z,19.65
2023-03-26T13:04:12.808Z,19.51
2023-03-26T13:06:59.325Z,19.51
2023-03-26T13:09:33.858Z,19.30
2023-03-26T13:12:17.769Z,19.33
2023-03-26T13:15:04.111Z,19.25
2023-03-26T13:17:40.560Z,18.85
2023-03-26T13:20:16.320Z,18.90
2023-03-26T13:22:52.824Z,18.69
2023-03-26T13:25:20.069Z,18.29
2023-03-26T13:28:00.137Z,17.98
2023-03-26T13:30:50.344Z,17.32
2023-03-26T13:33:27.700Z,16.75
2023-03-26T13:36:23.223Z,16.48
2023-03-26T13:39:05.312Z,16.19
2023-03-26T13:41:48.372Z,16.04
2023-03-26T13:44:23.510Z,15.82
2023-03-26T13:46:55.975Z,15.53
2023-03-26T13:49:26.159Z,15.50
2023-03-26T13:51:56.765Z,15.54
2023-03-26T13:54:24.216Z,15.65
2023-03-26T13:56:55.457Z,15.73
2023-03-26T13:59:29.690Z,16.06
2023-03-26T14:02:01.442Z,16.30
2023-03-26T14:06:42.570Z,16.48
2023-03-26T14:09:23.148Z,16.57
2023-03-26T14:11:50.694Z,16.73
2023-03-26T14:14:43.875Z,16.73
2023-03-26T14:17:23.337Z,16.81
2023-03-26T14:20:10.046Z,16.60
2023-03-26T14:22:52.720Z,16.79
2023-03-26T14:25:20.267Z,17.01
2023-03-26T14:27:56.874Z,17.14
2023-03-26T14:30:33.515Z,17.21
2023-03-26T14:33:27.332Z,17.11
2023-03-26T14:36:15.927Z,16.96
2023-03-26T14:39:12.652Z,16.75
2023-03-26T14:41:48.352Z,16.06
2023-03-26T14:44:31.172Z,15.85
2023-03-26T14:47:16.348Z,15.40
2023-03-26T14:49:44.312Z,15.23
2023-03-26T14:52:12.093Z,14.84
2023-03-26T14:54:42.250Z,14.57
2023-03-26T14:57:23.298Z,14.38
2023-03-26T15:00:17.048Z,14.19
2023-03-26T15:02:54.567Z,14.17
2023-03-26T15:05:22.452Z,14.07
2023-03-26T15:08:04.805Z,13.96
2023-03-26T15:10:51.603Z,13.92
2023-03-26T15:13:37.444Z,13.82
2023-03-26T15:16:12.098Z,13.62
2023-03-26T15:18:50.224Z,13.59
2023-03-26T15:21:37.201Z,13.46
2023-03-26T15:24:16.290Z,13.25
2023-03-26T15:27:02.279Z,13.10
2023-03-26T15:29:35.884Z,12.88
2023-03-26T15:32:03.380Z,12.72
2023-03-26T15:34:48.881Z,12.66
2023-03-26T15:37:22.825Z,12.53
2023-03-26T15:40:10.194Z,12.42
2023-03-26T15:42:45.075Z,12.30
2023-03-26T15:45:34.229Z,12.17
2023-03-26T15:48:11.513Z,12.08
2023-03-26T15:51:00.345Z,11.92
2023-03-26T15:53:45.888Z,11.79
2023-03-26T15:56:13.359Z,11.68
2023-03-26T15:58:47.000Z,11.61
2023-03-26T16:01:20.552Z,11.60
2023-03-26T16:04:06.925Z,11.65
2023-03-26T16:06:41.667Z,11.59
2023-03-26T16:09:24.422Z,11.65
2023-03-26T16:11:59.154Z,11.59
2023-03-26T16:14:35.661Z,11.55
2023-03-26T16:17:07.047Z,11.54
2023-03-26T16:19:41.440Z,11.39
2023-03-26T16:22:14.418Z,11.18
2023-03-26T16:24:47.117Z,10.96
2023-03-26T16:27:14.925Z,10.73
2023-03-26T16:30:00.315Z,10.59
2023-03-26T16:32:30.289Z,10.48
2023-03-26T16:35:05.563Z,10.38
2023-03-26T16:37:38.581Z,10.29
2023-03-26T16:40:18.756Z,10.21
2023-03-26T16:42:52.898Z,10.09
2023-03-26T16:45:20.057Z,9.95
2023-03-26T16:48:03.868Z,9.88
2023-03-26T16:50:37.263Z,9.73
2023-03-26T16:53:14.077Z,9.52
2023-03-26T16:55:44.722Z,9.37
2023-03-26T16:58:28.324Z,9.10
2023-03-26T17:01:06.896Z,8.91
2023-03-26T17:03:41.791Z,8.57
2023-03-26T17:06:21.214Z,8.42
2023-03-26T17:08:55.511Z,8.24
2023-03-26T17:11:23.087Z,8.01
2023-03-26T17:13:50.008Z,7.90
2023-03-26T17:16:25.142Z,7.80
2023-03-26T17:19:11.495Z,7.60
2023-03-26T17:21:45.762Z,7.48
2023-03-26T17:27:22.258Z,7.19
2023-03-26T17:29:58.955Z,7.10
2023-03-26T17:32:47.496Z,7.03
2023-03-26T17:35:15.736Z,6.95
2023-03-26T17:37:45.883Z,7.00
2023-03-26T17:40:30.712Z,7.35
2023-03-26T17:43:02.291Z,7.46
2023-03-26T17:45:30.840Z,7.37
2023-03-26T17:48:00.559Z,7.37
2023-03-26T17:50:32.176Z,7.53
2023-03-26T17:53:02.917Z,7.56
2023-03-26T17:55:31.534Z,7.62
2023-03-26T17:58:00.372Z,7.15
2023-03-26T18:00:30.440Z,7.19
2023-03-26T18:03:01.503Z,7.24
2023-03-26T18:05:30.327Z,7.24
2023-03-26T18:08:02.257Z,7.27
2023-03-26T18:10:56.008Z,7.14
2023-03-26T18:13:40.082Z,7.07
2023-03-26T18:16:14.452Z,7.08
2023-03-26T18:18:53.533Z,6.94
2023-03-26T18:21:32.567Z,6.90
2023-03-26T18:24:01.432Z,6.83
2023-03-26T18:26:35.614Z,6.75
2023-03-26T18:29:28.974Z,6.03
2023-03-26T18:32:03.120Z,5.77
2023-03-26T18:34:32.245Z,5.66
2023-03-26T18:37:11.741Z,5.63
2023-03-26T18:39:39.020Z,5.58
2023-03-26T18:42:07.141Z,5.55
2023-03-26T18:44:36.909Z,5.57
2023-03-26T18:47:07.642Z,5.61
2023-03-26T18:49:37.084Z,5.55
2023-03-26T18:52:04.318Z,5.51
2023-03-26T18:54:35.691Z,5.47
2023-03-26T18:57:15.236Z,5.43
2023-03-26T18:59:45.497Z,5.39
2023-03-26T19:02:14.132Z,5.42
2023-03-26T19:04:45.435Z,5.45
2023-03-26T19:07:15.677Z,5.47
2023-03-26T19:09:43.530Z,5.51
2023-03-26T19:12:19.079Z,5.50
2023-03-26T19:14:56.713Z,5.52
2023-03-26T19:17:26.949Z,5.55
2023-03-26T19:19:55.755Z,5.61
2023-03-26T19:22:25.869Z,5.63
2023-03-26T19:24:57.975Z,5.56
2023-03-26T19:27:25.797Z,5.64
2023-03-26T19:29:53.305Z,5.66
2023-03-26T19:32:22.379Z,5.57
2023-03-26T19:34:51.182Z,5.52
2023-03-26T19:37:20.269Z,5.54
2023-03-26T19:39:47.209Z,5.56
2023-03-26T19:42:18.856Z,5.54
2023-03-26T19:44:46.518Z,5.51
2023-03-26T19:47:35.258Z,5.47
2023-03-26T19:50:25.071Z,5.48
2023-03-26T19:53:15.537Z,5.51
2023-03-26T19:55:53.519Z,5.44
2023-03-26T19:58:21.562Z,5.37
2023-03-26T20:00:48.904Z,5.32
2023-03-26T20:03:17.081Z,5.34
2023-03-26T20:05:44.208Z,5.31
2023-03-26T20:08:15.059Z,5.29
2023-03-26T20:10:42.758Z,5.31
2023-03-26T20:13:16.560Z,5.27
2023-03-26T20:15:49.309Z,5.26
2023-03-26T20:18:34.188Z,5.25
2023-03-26T20:21:01.474Z,5.22
2023-03-26T20:23:29.116Z,5.23
2023-03-26T20:25:57.021Z,5.24
2023-03-26T20:28:24.695Z,5.24
2023-03-26T20:30:54.673Z,5.28
2023-03-26T20:33:25.793Z,5.32
2023-03-26T20:35:54.143Z,5.29
2023-03-26T20:38:26.565Z,5.34
2023-03-26T20:41:01.072Z,5.34
2023-03-26T20:43:30.546Z,5.34
2023-03-26T20:46:00.961Z,5.34
2023-03-26T20:48:28.079Z,5.33
2023-03-26T20:50:55.243Z,5.32
2023-03-26T20:53:24.088Z,5.29
2023-03-26T20:55:51.901Z,5.26
2023-03-26T20:58:31.790Z,5.24
2023-03-26T21:01:01.085Z,5.20
2023-03-26T21:03:28.542Z,5.20
2023-03-26T21:05:59.186Z,5.16
2023-03-26T21:08:30.399Z,5.13
2023-03-26T21:11:02.575Z,5.09
2023-03-26T21:13:37.482Z,5.07
2023-03-26T21:16:05.473Z,5.07
2023-03-26T21:18:32.699Z,5.09
2023-03-26T21:21:20.120Z,5.09
2023-03-26T21:24:14.776Z,5.08
2023-03-26T21:27:01.962Z,5.13
2023-03-26T21:29:29.546Z,5.13
2023-03-26T21:31:56.810Z,5.13
2023-03-26T21:34:24.129Z,5.17
2023-03-26T21:36:51.989Z,5.11
2023-03-26T21:39:19.191Z,5.11
2023-03-26T21:41:48.508Z,5.10
2023-03-26T21:44:34.418Z,5.07
2023-03-26T21:47:01.915Z,5.06
2023-03-26T21:49:29.085Z,5.06
2023-03-26T21:51:56.478Z,5.03
2023-03-26T21:54:28.137Z,5.04
2023-03-26T21:56:55.054Z,5.13
2023-03-26T21:59:30.343Z,5.22
2023-03-26T22:02:00.777Z,5.31
2023-03-26T22:04:33.697Z,5.41
2023-03-26T22:07:15.927Z,5.50
2023-03-26T22:09:44.030Z,5.44
2023-03-26T22:12:11.915Z,5.52
2023-03-26T22:14:39.253Z,5.58
2023-03-26T22:17:06.600Z,5.60
2023-03-26T22:19:35.041Z,5.58
2023-03-26T22:22:02.604Z,5.60
2023-03-26T22:24:29.882Z,5.61
2023-03-26T22:26:57.368Z,5.58
2023-03-26T22:29:24.926Z,5.54
2023-03-26T22:31:54.234Z,5.46
2023-03-26T22:34:23.438Z,5.39
2023-03-26T22:36:50.687Z,5.31
2023-03-26T22:39:18.557Z,5.22
2023-03-26T22:41:46.291Z,5.14
2023-03-26T22:46:47.570Z,4.98
2023-03-26T22:49:14.793Z,4.88
2023-03-26T22:51:41.991Z,4.79
2023-03-26T22:54:09.703Z,4.67
2023-03-26T22:56:37.444Z,4.51
2023-03-26T22:59:04.708Z,4.32
2023-03-26T23:01:31.793Z,4.15
2023-03-26T23:03:59.759Z,4.02
2023-03-26T23:06:30.927Z,3.87
2023-03-26T23:08:59.228Z,3.73
2023-03-26T23:11:28.112Z,3.62
2023-03-26T23:13:56.313Z,3.50
2023-03-26T23:16:24.342Z,3.40
2023-03-26T23:18:51.877Z,3.30
2023-03-26T23:21:20.538Z,3.21
2023-03-26T23:23:48.674Z,3.14
2023-03-26T23:26:17.134Z,3.09
2023-03-26T23:28:44.443Z,3.03
2023-03-26T23:31:12.780Z,3.11
2023-03-26T23:33:46.697Z,3.17
2023-03-26T23:36:14.808Z,3.19
2023-03-26T23:38:43.066Z,3.16
2023-03-26T23:41:15.452Z,3.14
2023-03-26T23:43:54.312Z,3.08
2023-03-26T23:46:23.633Z,3.02
2023-03-26T23:48:55.179Z,2.98
2023-03-26T23:51:22.581Z,2.90
2023-03-26T23:53:49.890Z,2.83
2023-03-26T23:56:17.368Z,2.76
2023-03-26T23:58:44.766Z,2.67
